createdAt,value
2023-05-25T00:02:15.518Z,4.95
2023-05-25T00:07:19.905Z,4.82
2023-05-25T00:12:23.885Z,4.50
2023-05-25T00:17:30.065Z,5.12
2023-05-25T00:22:34.375Z,5.55
2023-05-25T00:27:38.123Z,4.57
2023-05-25T00:32:43.266Z,5.40
2023-05-25T00:37:47.640Z,5.05
2023-05-25T00:42:52.126Z,5.60
2023-05-25T00:47:57.698Z,5.15
2023-05-25T00:53:01.927Z,5.72
2023-05-25T00:58:08.868Z,4.85
2023-05-25T01:03:17.759Z,5.90
2023-05-25T01:08:24.667Z,5.22
2023-05-25T01:13:29.584Z,4.75
2023-05-25T01:18:36.027Z,6.90
2023-05-25T01:23:48.110Z,6.65
2023-05-25T01:40:51.215Z,6.07
2023-05-25T01:46:00.754Z,6.20
2023-05-25T01:51:13.797Z,6.70
2023-05-25T01:56:21.461Z,6.35
2023-05-25T02:01:27.216Z,6.20
2023-05-25T02:06:31.909Z,6.20
2023-05-25T02:11:39.669Z,6.37
2023-05-25T02:16:46.079Z,8.48
2023-05-25T02:21:49.950Z,7.70
2023-05-25T02:26:55.170Z,6.47
2023-05-25T02:32:00.087Z,6.82
2023-05-25T02:37:05.426Z,6.93
2023-05-25T02:42:10.531Z,7.28
2023-05-25T02:47:14.262Z,6.62
2023-05-25T02:52:18.088Z,7.10
2023-05-25T02:57:23.359Z,7.03
2023-05-25T03:02:29.052Z,7.68
2023-05-25T03:07:33.480Z,7.07
2023-05-25T03:12:38.649Z,7.72
2023-05-25T03:17:42.466Z,8.10
2023-05-25T03:22:46.333Z,6.75
2023-05-25T03:27:54.298Z,7.03
2023-05-25T03:32:58.078Z,6.78
2023-05-25T03:38:03.173Z,6.28
2023-05-25T03:43:08.349Z,7.80
2023-05-25T03:48:12.320Z,8.18
2023-05-25T03:53:16.410Z,6.97
2023-05-25T03:58:23.044Z,7.95
2023-05-25T04:03:27.938Z,8.10
2023-05-25T04:08:31.889Z,7.10
2023-05-25T04:13:36.973Z,7.82
2023-05-25T04:18:41.613Z,7.28
2023-05-25T04:23:45.791Z,7.60
2023-05-25T04:28:51.938Z,8.43
2023-05-25T04:33:59.036Z,7.95
2023-05-25T04:39:04.276Z,8.32
2023-05-25T04:44:11.273Z,8.05
2023-05-25T04:49:16.835Z,7.32
2023-05-25T04:54:20.979Z,7.25
2023-05-25T04:59:26.231Z,6.97
2023-05-25T05:04:30.470Z,7.43
2023-05-25T05:09:34.339Z,7.30
2023-05-25T05:14:40.346Z,7.03
2023-05-25T05:19:44.715Z,6.93
2023-05-25T05:24:48.984Z,6.37
2023-05-25T05:29:56.676Z,6.70
2023-05-25T05:35:01.107Z,5.95
2023-05-25T05:40:09.270Z,6.47
2023-05-25T05:45:14.596Z,6.87
2023-05-25T05:50:19.246Z,6.53
2023-05-25T05:55:23.296Z,6.40
2023-05-25T06:00:29.883Z,7.12
2023-05-25T06:05:33.869Z,6.18
2023-05-25T06:10:37.949Z,6.60
2023-05-25T06:15:43.488Z,5.82
2023-05-25T06:20:48.172Z,5.93
2023-05-25T06:25:53.601Z,5.53
2023-05-25T06:30:59.580Z,5.97
2023-05-25T06:36:04.920Z,6.50
2023-05-25T06:41:12.830Z,6.72
2023-05-25T06:46:18.953Z,5.80
2023-05-25T06:51:22.746Z,6.43
2023-05-25T06:56:26.594Z,5.93
2023-05-25T07:01:31.776Z,5.57
2023-05-25T07:06:36.515Z,5.75
2023-05-25T07:11:40.265Z,4.95
2023-05-25T07:16:46.083Z,5.82
2023-05-25T07:21:49.839Z,4.90
2023-05-25T07:26:53.706Z,5.30
2023-05-25T07:31:58.780Z,4.43
2023-05-25T07:37:02.603Z,4.60
2023-05-25T07:42:06.597Z,5.62
2023-05-25T07:47:12.383Z,4.40
2023-05-25T07:52:16.793Z,4.87
2023-05-25T07:57:20.736Z,3.92
2023-05-25T08:02:26.164Z,5.03
2023-05-25T08:07:30.046Z,5.40
2023-05-25T08:12:46.179Z,6.05
2023-05-25T08:22:56.971Z,4.60
2023-05-25T08:28:00.795Z,5.62
2023-05-25T08:33:06.965Z,4.70
2023-05-25T08:38:10.777Z,4.07
2023-05-25T08:43:14.583Z,4.50
2023-05-25T08:48:39.289Z,4.53
2023-05-25T08:53:44.853Z,4.90
2023-05-25T08:58:54.851Z,3.78
2023-05-25T09:04:02.335Z,4.18
2023-05-25T09:09:06.438Z,4.00
2023-05-25T09:14:10.164Z,4.00
2023-05-25T09:19:18.068Z,4.20
2023-05-25T09:24:23.136Z,3.67
2023-05-25T09:29:27.640Z,3.78
2023-05-25T09:34:34.859Z,4.00
2023-05-25T09:39:39.096Z,4.32
2023-05-25T09:44:43.682Z,3.50
2023-05-25T09:49:50.564Z,3.92
2023-05-25T09:54:55.034Z,3.75
2023-05-25T09:59:58.870Z,3.47
2023-05-25T10:05:04.188Z,2.85
2023-05-25T10:10:09.426Z,3.95
2023-05-25T10:15:14.797Z,3.10
2023-05-25T10:20:21.936Z,2.83
2023-05-25T10:25:29.975Z,2.58
2023-05-25T10:30:36.872Z,3.42
2023-05-25T10:36:01.332Z,3.78
2023-05-25T10:41:07.435Z,3.45
2023-05-25T10:46:12.612Z,4.18
2023-05-25T10:51:20.576Z,3.60
2023-05-25T10:56:24.364Z,3.42
2023-05-25T11:01:28.288Z,3.58
2023-05-25T11:07:13.281Z,3.33
2023-05-25T11:12:21.820Z,3.78
2023-05-25T11:17:27.509Z,4.07
2023-05-25T11:22:35.336Z,3.58
2023-05-25T11:27:47.344Z,3.50
2023-05-25T11:32:51.482Z,3.55
2023-05-25T11:37:56.567Z,3.97
2023-05-25T11:43:01.278Z,3.83
2023-05-25T11:48:05.903Z,3.47
2023-05-25T11:53:11.711Z,3.20
2023-05-25T11:58:15.500Z,3.90
2023-05-25T12:03:34.476Z,3.72
2023-05-25T12:08:39.695Z,3.58
2023-05-25T12:13:43.516Z,3.75
2023-05-25T12:18:47.578Z,3.75
2023-05-25T12:23:54.774Z,3.47
2023-05-25T12:29:02.292Z,3.60
2023-05-25T12:34:07.219Z,3.70
2023-05-25T12:39:14.288Z,4.10
2023-05-25T12:44:23.107Z,3.95
2023-05-25T12:49:28.805Z,3.55
2023-05-25T12:54:51.744Z,4.15
2023-05-25T12:59:57.496Z,3.78
2023-05-25T13:05:01.351Z,3.87
2023-05-25T13:10:07.509Z,3.42
2023-05-25T13:15:11.806Z,4.30
2023-05-25T13:20:16.448Z,3.78
2023-05-25T13:25:22.185Z,3.90
2023-05-25T13:30:26.420Z,3.25
2023-05-25T13:35:45.575Z,3.75
2023-05-25T13:40:50.656Z,4.57
2023-05-25T13:45:54.843Z,3.62
2023-05-25T13:50:59.867Z,3.05
2023-05-25T13:56:04.994Z,2.90
2023-05-25T14:01:09.442Z,3.70
2023-05-25T14:06:13.433Z,3.55
2023-05-25T14:11:22.110Z,4.00
2023-05-25T14:16:31.965Z,3.67
2023-05-25T14:21:35.816Z,3.12
2023-05-25T14:26:42.618Z,3.62
2023-05-25T14:31:46.544Z,3.30
2023-05-25T14:36:50.400Z,3.40
2023-05-25T14:41:56.169Z,3.05
2023-05-25T14:47:00.055Z,3.87
2023-05-25T14:52:04.074Z,3.53
2023-05-25T14:57:09.157Z,3.97
2023-05-25T15:02:12.905Z,3.45
2023-05-25T15:07:16.713Z,3.65
2023-05-25T15:12:21.816Z,3.53
2023-05-25T15:17:25.636Z,3.60
2023-05-25T15:22:29.401Z,3.45
2023-05-25T15:27:34.884Z,3.62
2023-05-25T15:32:38.716Z,4.18
2023-05-25T15:37:43.067Z,4.45
2023-05-25T15:42:48.241Z,3.67
2023-05-25T15:47:52.057Z,3.72
2023-05-25T15:52:55.826Z,3.47
2023-05-25T15:58:00.915Z,3.45
2023-05-25T16:03:05.324Z,3.70
2023-05-25T16:08:09.141Z,3.60
2023-05-25T16:13:14.369Z,3.42
2023-05-25T16:18:18.142Z,3.70
2023-05-25T16:23:22.008Z,3.58
2023-05-25T16:28:27.252Z,4.53
2023-05-25T16:33:31.050Z,5.05
2023-05-25T16:38:34.890Z,3.80
2023-05-25T16:43:39.973Z,4.40
2023-05-25T16:48:43.816Z,4.00
2023-05-25T16:53:47.566Z,7.12
2023-05-25T16:58:52.690Z,4.15
2023-05-25T17:03:56.561Z,4.22
2023-05-25T17:09:00.903Z,3.78
2023-05-25T17:14:06.056Z,4.80
2023-05-25T17:19:10.890Z,4.78
2023-05-25T17:24:14.815Z,3.70
2023-05-25T17:29:19.909Z,4.70
2023-05-25T17:34:23.709Z,4.22
2023-05-25T17:39:27.471Z,4.82
2023-05-25T17:44:32.616Z,6.25
2023-05-25T17:49:36.482Z,5.12
2023-05-25T17:54:40.292Z,5.12
2023-05-25T17:59:45.904Z,5.03
2023-05-25T18:04:49.707Z,4.80
2023-05-25T18:09:53.442Z,6.22
2023-05-25T18:14:58.638Z,5.60
2023-05-25T18:20:02.398Z,5.85
2023-05-25T18:25:07.232Z,6.43
2023-05-25T18:30:13.484Z,6.18
2023-05-25T18:35:17.273Z,5.20
2023-05-25T18:40:21.352Z,5.68
2023-05-25T18:45:26.975Z,6.70
2023-05-25T18:50:30.697Z,5.57
2023-05-25T18:55:34.489Z,5.00
2023-05-25T19:00:39.580Z,5.93
2023-05-25T19:05:43.513Z,5.57
2023-05-25T19:10:47.452Z,5.55
2023-05-25T19:15:52.553Z,6.22
2023-05-25T19:20:56.321Z,5.65
2023-05-25T19:26:00.122Z,5.78
2023-05-25T19:31:05.647Z,5.93
2023-05-25T19:36:09.436Z,6.07
2023-05-25T19:41:13.214Z,7.15
2023-05-25T19:46:18.695Z,6.50
2023-05-25T19:51:22.676Z,6.37
2023-05-25T19:56:26.532Z,5.55
2023-05-25T20:01:32.029Z,7.53
2023-05-25T20:06:37.455Z,6.03
2023-05-25T20:11:41.647Z,4.97
2023-05-25T20:16:46.751Z,6.45
2023-05-25T20:21:50.506Z,6.85
2023-05-25T20:26:56.755Z,7.35
2023-05-25T20:32:02.188Z,6.55
2023-05-25T20:37:06.107Z,6.15
2023-05-25T20:42:10.275Z,6.80
2023-05-25T20:47:15.375Z,5.57
2023-05-25T20:52:19.261Z,6.07
2023-05-25T20:57:23.024Z,6.20
2023-05-25T21:02:28.812Z,6.80
2023-05-25T21:07:32.853Z,6.85
2023-05-25T21:12:37.215Z,6.53
2023-05-25T21:17:42.353Z,6.60
2023-05-25T21:22:46.121Z,6.80
2023-05-25T21:27:49.871Z,7.07
2023-05-25T21:32:55.009Z,7.10
2023-05-25T21:37:58.761Z,6.80
2023-05-25T21:43:02.626Z,7.00
2023-05-25T21:48:07.861Z,6.35
2023-05-25T21:53:11.648Z,7.05
2023-05-25T21:58:16.997Z,7.03
2023-05-25T22:03:22.348Z,7.32
2023-05-25T22:08:26.057Z,6.35
2023-05-25T22:13:29.884Z,7.72
2023-05-25T22:18:36.475Z,7.55
2023-05-25T22:23:41.508Z,6.85
2023-05-25T22:28:45.236Z,6.60
2023-05-25T22:33:50.381Z,6.68
2023-05-25T22:38:54.160Z,6.87
2023-05-25T22:43:57.917Z,6.37
2023-05-25T22:49:03.061Z,6.43
2023-05-25T22:54:06.880Z,5.93
2023-05-25T22:59:10.619Z,5.80
2023-05-25T23:04:15.897Z,5.50
2023-05-25T23:09:19.785Z,7.85
2023-05-25T23:14:23.604Z,5.95
2023-05-25T23:19:28.704Z,7.00
2023-05-25T23:24:32.453Z,6.45
2023-05-25T23:29:36.243Z,6.80
2023-05-25T23:34:41.711Z,5.50
2023-05-25T23:39:45.544Z,5.93
2023-05-25T23:44:49.297Z,7.45
2023-05-25T23:49:54.368Z,6.72
2023-05-25T23:54:58.120Z,6.87
